Aérodrome :
LOGIN :

S'inscrire | Disclaimer

   EN    FR    IT 

 










Légende :    VFR   VFR Marginal   IFR   IFR Intensif   IFR Très Intensif
Visi : 
Plafond : 
>= 8 km
>= 3000ft
5 à 8 km
1000 à 3000 ft
1500m à 5 km
500 à 1000 ft
800 à 1500m
200 à 500 ft
< 800m
< 200 ft
Symboles :   Orages  Brouillard  Fortes neiges  Fortes précipitations  Vent > 20 kt
SIGMETs :   Divers  Orages  Givrage  Turbulence  Onde Orograph.  Cendres Volcan.







- Altitude de l'aérodrome : 197 ft
- Code IATA : XOG
- Voir les cartes d'approche


LFMO - Orange

DERNIER METAR :
  • 181730Z AUTO 13005KT CAVOK 09/04 Q1018 NOSIG

METARs EXPIRÉS :
  • 181700Z AUTO 12006KT CAVOK 08/04 Q1018 NOSIG
  • 181630Z AUTO 12005KT CAVOK 10/04 Q1018 NOSIG
  • 181600Z AUTO 13006KT CAVOK 12/05 Q1018 NOSIG
  • 181530Z AUTO 11005KT CAVOK 12/04 Q1018 NOSIG
  • 181500Z AUTO 11003KT CAVOK 12/04 Q1018 NOSIG

TAF TAF LFMO
Valide du 18 à 15h jusqu'au 19 à 15h UTC


181400Z 1815/1915 15010KT CAVOK
BECMG 1818/1820 09005KT
BECMG 1822/1824 VRB02KT
TEMPO 1900/1906 3000 BR
PROB40
TEMPO 1901/1906 0800 FG VV///
BECMG 1908/1910 35015KT
BECMG 1910/1912 35015G25KT
TEMPO 1912/1915 35020G30KT
Pas de NOTAMs connus pour ce terrain.
5 SIGMETs publiés pour la FIR Marseille (LFMM) :
 
Onde orographique forte
LFMM SIGMET 18 VALID 181800/182200 LFPW
LFMM MARSEILLE FIR/UIR SEV MTW FCST E OF LINE N4115 E00900 - N4330 E00830 SFC/FL300 STNR NC=
Onde orographique forte
LFMM SIGMET 17 VALID 181800/182200 LFPW
LFMM MARSEILLE FIR/UIR SEV MTW FCST WI N4530 E00700 - N4400 E00700 - N4400 E00715 - N4330 E00630 - N4500 E00630 - N4530 E00700 SFC/FL250 STNR NC=
Turbulence forte
LFMM SIGMET 16 VALID 181700/182100 LFPW
LFMM MARSEILLE FIR/UIR SEV TURB FCST WI N4345 E00800 - N4315 E00945 - N4115 E00945 - N4115 E00845 - N4300 E00600 - N4345 E00645 - N4345 E00800 SFC/FL040 STNR NC=
Onde orographique forte
LFMM SIGMET 15 VALID 181500/181800 LFPW
LFMM MARSEILLE FIR/UIR SEV MTW FCST E OF LINE N4115 E00900 - N4330 E00830 SFC/FL350 STNR NC=
Onde orographique forte
LFMM SIGMET 14 VALID 181500/181800 LFPW
LFMM MARSEILLE FIR/UIR SEV MTW FCST WI N4530 E00700 - N4400 E00700 - N4400 E00730 - N4330 E00630 - N4500 E00615 - N4530 E00700 SFC/FL300 STNR NC=



MET'MAP, la Météo Aéronautique d'un coup d'oeil ! - Copyright ORBIFLY Décembre 2007 - Disclaimer

ORBIFLY MET'MAP TEAM :

Programmation & Développement : Alexandra Zaïnal
Conception & Développement : Baudouin d'Aumeries
Co-Programmation & Développement : Marc-Olivier Méhu
Soutien technique & logistique : Manuel Goepfert

Contact : metmap@orbifly.com




SOURCES & CREDITS :

   NOAA